Time;durP1;ratioP1;P1;durP2;ratioP2;P2;SDS_P1;SDS_P2;PMS_P1;PMS_P2;Temp;Humidity;BMP_temperature;BMP_pressure;BME280_temperature;BME280_humidity;BME280_pressure;Samples;Min_cycle;Max_cycle;Signal;HPM_P1;HPM_P2
2021/07/19 00:01:56;;;;;;;5.82;4.80;;;19.20;99.90;;;;;;5095386;28;20692;-83
2021/07/19 00:04:21;;;;;;;8.00;5.10;;;19.20;99.90;;;;;;5039881;28;20543;-82
2021/07/19 00:06:47;;;;;;;7.00;4.78;;;19.20;99.90;;;;;;5040385;28;20214;-82
2021/07/19 00:09:13;;;;;;;5.00;4.60;;;19.10;99.90;;;;;;5040747;28;20167;-82
2021/07/19 00:11:40;;;;;;;6.28;4.90;;;19.00;99.90;;;;;;5075000;28;20171;-82
2021/07/19 00:14:07;;;;;;;7.28;4.32;;;19.00;99.90;;;;;;5074970;28;20192;-82
2021/07/19 00:16:33;;;;;;;5.25;4.72;;;19.10;99.90;;;;;;5056974;28;20218;-82
2021/07/19 00:18:59;;;;;;;6.20;4.82;;;19.10;99.90;;;;;;5057094;28;20179;-82
2021/07/19 00:21:25;;;;;;;7.18;5.35;;;19.00;99.90;;;;;;5081650;28;20196;-81
2021/07/19 00:23:50;;;;;;;5.50;4.90;;;19.00;99.90;;;;;;5076864;28;20175;-82
2021/07/19 00:26:19;;;;;;;6.63;6.03;;;18.90;99.90;;;;;;5077003;28;20177;-82
2021/07/19 00:28:45;;;;;;;5.50;5.10;;;18.80;99.90;;;;;;5076503;28;20194;-82
2021/07/19 00:31:11;;;;;;;5.78;5.25;;;18.90;99.90;;;;;;5077007;28;20185;-82
2021/07/19 00:33:37;;;;;;;5.90;5.28;;;18.90;99.90;;;;;;5093226;28;20170;-82
2021/07/19 00:36:03;;;;;;;6.10;4.72;;;18.90;99.90;;;;;;5061212;28;20166;-80
2021/07/19 00:38:29;;;;;;;6.43;5.85;;;19.00;99.90;;;;;;5052956;28;20202;-82
2021/07/19 00:40:54;;;;;;;5.18;4.78;;;19.00;99.90;;;;;;5074236;28;20633;-83
2021/07/19 00:43:20;;;;;;;6.00;5.50;;;19.00;99.90;;;;;;5056531;28;20170;-83
2021/07/19 00:45:46;;;;;;;10.77;5.82;;;19.00;99.90;;;;;;5056193;28;20167;-83
2021/07/19 00:48:11;;;;;;;9.60;6.70;;;19.00;99.90;;;;;;5062464;28;20197;-82
2021/07/19 00:50:39;;;;;;;5.90;5.35;;;19.00;99.90;;;;;;5059830;28;20162;-82
2021/07/19 00:53:09;;;;;;;5.30;4.80;;;19.00;99.90;;;;;;5094507;28;20174;-82
2021/07/19 00:55:41;;;;;;;6.70;5.20;;;19.10;99.90;;;;;;5076635;28;20632;-82
2021/07/19 00:58:08;;;;;;;8.00;4.55;;;19.10;99.90;;;;;;5070151;28;20182;-83
2021/07/19 01:00:39;;;;;;;4.97;4.57;;;19.00;99.90;;;;;;5039766;28;20182;-82
2021/07/19 01:03:07;;;;;;;6.32;4.97;;;18.90;99.90;;;;;;5055813;28;20353;-82
2021/07/19 01:05:36;;;;;;;5.50;5.10;;;18.90;99.90;;;;;;5073988;28;20174;-82
2021/07/19 01:08:04;;;;;;;5.22;4.75;;;18.90;99.90;;;;;;5074305;28;20208;-82
2021/07/19 01:10:31;;;;;;;8.88;5.13;;;18.90;99.90;;;;;;5058731;28;20624;-82
2021/07/19 01:12:57;;;;;;;7.25;5.10;;;18.80;99.90;;;;;;5039546;28;20253;-83
2021/07/19 01:15:26;;;;;;;6.40;4.82;;;18.80;99.90;;;;;;5073741;28;20229;-82
2021/07/19 01:17:53;;;;;;;5.30;4.88;;;18.80;99.90;;;;;;5058749;28;20218;-82
2021/07/19 01:20:23;;;;;;;5.72;5.13;;;18.80;99.90;;;;;;5093658;28;20220;-81
2021/07/19 01:23:08;;;;;;;7.53;5.07;;;18.80;99.90;;;;;;5094132;28;20155;-81
2021/07/19 01:25:46;;;;;;;10.38;4.65;;;18.80;99.90;;;;;;5094033;28;20150;-82
2021/07/19 01:28:43;;;;;;;5.03;4.45;;;18.80;99.90;;;;;;5085572;28;20194;-81
2021/07/19 01:31:19;;;;;;;4.93;4.40;;;18.80;99.90;;;;;;5062940;28;20166;-82
2021/07/19 01:33:50;;;;;;;6.97;4.45;;;18.70;99.90;;;;;;5094178;28;20150;-82
2021/07/19 01:36:19;;;;;;;9.25;4.75;;;18.70;99.90;;;;;;5059241;28;20590;-81
2021/07/19 01:38:45;;;;;;;5.18;4.78;;;18.70;99.90;;;;;;5062724;28;20216;-82
2021/07/19 01:41:12;;;;;;;10.05;5.07;;;18.70;99.90;;;;;;5073449;28;20171;-82
2021/07/19 01:43:40;;;;;;;5.30;4.80;;;18.60;99.90;;;;;;5073514;28;20174;-82
2021/07/19 01:46:06;;;;;;;4.78;4.45;;;18.60;99.90;;;;;;5055772;28;20167;-82
2021/07/19 01:48:33;;;;;;;5.97;5.13;;;18.70;99.90;;;;;;5068048;28;20202;-82
2021/07/19 01:51:01;;;;;;;5.85;5.25;;;18.70;99.90;;;;;;5051236;28;20261;-82
2021/07/19 01:53:29;;;;;;;5.68;5.15;;;18.70;99.90;;;;;;5038970;28;20249;-81
2021/07/19 01:55:57;;;;;;;11.65;5.18;;;18.70;99.90;;;;;;5055821;28;20174;-82
2021/07/19 01:58:23;;;;;;;5.82;5.25;;;18.60;99.90;;;;;;5066233;28;20246;-82
2021/07/19 02:00:50;;;;;;;8.35;4.72;;;18.60;99.90;;;;;;5053172;28;20674;-81
2021/07/19 02:03:16;;;;;;;5.75;5.28;;;18.60;99.90;;;;;;5072979;28;20209;-82
2021/07/19 02:05:43;;;;;;;6.20;5.15;;;18.70;99.90;;;;;;5038728;28;20198;-81
2021/07/19 02:08:14;;;;;;;5.45;5.07;;;18.60;99.90;;;;;;5055177;28;20237;-82
2021/07/19 02:10:41;;;;;;;11.45;6.00;;;18.60;99.90;;;;;;5055213;28;20266;-82
2021/07/19 02:13:10;;;;;;;11.77;5.65;;;18.50;99.90;;;;;;5022401;28;20170;-81
2021/07/19 02:15:37;;;;;;;5.70;5.20;;;18.60;99.90;;;;;;5072880;28;20163;-82
2021/07/19 02:18:04;;;;;;;6.82;5.30;;;18.50;99.90;;;;;;5049529;28;20211;-81
2021/07/19 02:20:32;;;;;;;7.40;5.65;;;18.50;99.90;;;;;;5042920;28;20189;-82
2021/07/19 02:23:01;;;;;;;10.73;5.30;;;18.50;99.90;;;;;;5055052;28;20236;-82
2021/07/19 02:25:27;;;;;;;7.65;5.10;;;18.50;99.90;;;;;;5054954;28;20175;-81
2021/07/19 02:27:54;;;;;;;8.45;5.72;;;18.40;99.90;;;;;;5046119;28;20230;-81
2021/07/19 02:30:22;;;;;;;8.63;6.00;;;18.40;99.90;;;;;;5067187;28;20189;-82
2021/07/19 02:32:51;;;;;;;9.35;6.38;;;18.40;99.90;;;;;;5075150;28;20167;-82
2021/07/19 02:35:17;;;;;;;7.47;6.78;;;18.40;99.90;;;;;;5076785;28;20167;-81
2021/07/19 02:37:45;;;;;;;7.05;6.32;;;18.30;99.90;;;;;;5042707;28;20266;-81
2021/07/19 02:40:13;;;;;;;19.67;7.10;;;18.30;99.90;;;;;;5058774;28;20536;-82
2021/07/19 02:42:45;;;;;;;8.95;6.78;;;18.30;99.90;;;;;;5058692;28;20167;-81
2021/07/19 02:45:16;;;;;;;7.35;6.63;;;18.20;99.90;;;;;;5076603;28;20151;-82
2021/07/19 02:47:46;;;;;;;16.27;7.50;;;18.20;99.90;;;;;;5070924;28;20201;-81
2021/07/19 02:50:14;;;;;;;10.48;7.18;;;18.20;99.90;;;;;;5096872;28;20244;-82
2021/07/19 02:52:41;;;;;;;5.75;5.25;;;18.30;99.90;;;;;;5096677;28;20162;-81
2021/07/19 02:55:08;;;;;;;9.80;5.00;;;18.40;99.90;;;;;;5061789;28;20205;-81
2021/07/19 02:57:35;;;;;;;5.28;4.78;;;18.30;99.90;;;;;;5067407;28;20265;-81
2021/07/19 03:00:22;;;;;;;5.85;4.55;;;18.40;99.90;;;;;;5059075;28;20253;-82
2021/07/19 03:02:54;;;;;;;8.20;5.22;;;18.30;99.90;;;;;;5054740;28;20262;-81
2021/07/19 03:05:26;;;;;;;6.10;5.60;;;18.30;99.90;;;;;;5076274;28;20166;-81
2021/07/19 03:07:54;;;;;;;7.05;6.55;;;18.30;99.90;;;;;;5089391;28;20198;-82
2021/07/19 03:10:22;;;;;;;19.02;6.70;;;18.30;99.90;;;;;;5096521;28;20228;-81
2021/07/19 03:12:51;;;;;;;6.40;5.90;;;18.30;99.90;;;;;;5078432;28;20166;-82
2021/07/19 03:15:17;;;;;;;8.90;5.93;;;18.40;99.90;;;;;;5096362;28;20197;-81
2021/07/19 03:17:44;;;;;;;5.72;5.32;;;18.30;99.90;;;;;;5084530;28;20182;-81
2021/07/19 03:20:12;;;;;;;6.07;5.40;;;18.30;99.90;;;;;;5075899;28;20257;-81
2021/07/19 03:22:39;;;;;;;15.05;5.32;;;18.20;99.90;;;;;;5075900;28;20231;-81
2021/07/19 03:25:08;;;;;;;5.30;4.90;;;18.20;99.90;;;;;;5058107;28;20175;-81
2021/07/19 03:27:37;;;;;;;7.80;6.88;;;18.20;99.90;;;;;;5051456;28;20209;-82
2021/07/19 03:30:05;;;;;;;7.70;6.95;;;18.20;99.90;;;;;;5077529;28;20178;-81
2021/07/19 03:32:31;;;;;;;13.98;6.55;;;18.20;99.90;;;;;;5070276;28;20170;-82
2021/07/19 03:34:57;;;;;;;5.95;5.45;;;18.20;99.90;;;;;;5041012;28;20621;-81
2021/07/19 03:37:23;;;;;;;6.43;5.88;;;18.20;99.90;;;;;;5049441;28;20695;-81
2021/07/19 03:39:50;;;;;;;11.70;6.65;;;18.10;99.90;;;;;;5041017;28;20262;-82
2021/07/19 03:42:16;;;;;;;9.57;7.00;;;18.00;99.90;;;;;;5057532;28;20228;-82
2021/07/19 03:44:43;;;;;;;6.88;6.22;;;18.00;99.90;;;;;;5040870;28;20166;-82
2021/07/19 03:47:11;;;;;;;10.50;7.25;;;18.00;99.90;;;;;;5057803;28;20565;-81
2021/07/19 03:49:37;;;;;;;7.55;6.85;;;18.10;99.90;;;;;;5040935;28;20178;-82
2021/07/19 03:52:04;;;;;;;9.18;7.65;;;18.10;99.90;;;;;;5041089;28;20632;-82
2021/07/19 03:54:29;;;;;;;11.13;7.85;;;18.10;99.90;;;;;;5057471;28;20229;-81
2021/07/19 03:56:56;;;;;;;8.20;6.43;;;18.10;99.90;;;;;;5064319;28;20678;-82
2021/07/19 03:59:24;;;;;;;8.05;6.18;;;18.00;99.90;;;;;;5060376;28;20181;-81
2021/07/19 04:01:51;;;;;;;11.32;6.43;;;18.00;99.90;;;;;;5075254;28;20209;-82
2021/07/19 04:04:29;;;;;;;12.13;6.60;;;17.90;99.90;;;;;;5057171;28;20701;-81
2021/07/19 04:06:56;;;;;;;7.53;6.80;;;17.90;99.90;;;;;;5063606;28;20589;-82
2021/07/19 04:09:22;;;;;;;7.80;7.10;;;17.90;99.90;;;;;;5095350;28;20206;-81
2021/07/19 04:11:48;;;;;;;7.90;7.30;;;18.00;99.90;;;;;;5076834;28;20174;-81
2021/07/19 04:14:14;;;;;;;9.50;7.63;;;18.00;99.90;;;;;;5095539;28;20256;-82
2021/07/19 04:16:40;;;;;;;8.15;7.50;;;18.00;99.90;;;;;;5070162;28;20683;-82
2021/07/19 04:19:06;;;;;;;9.07;8.05;;;18.10;99.90;;;;;;5040536;28;20185;-82
2021/07/19 04:21:33;;;;;;;11.80;8.60;;;18.10;99.90;;;;;;5057098;28;20174;-82
2021/07/19 04:23:59;;;;;;;15.00;8.23;;;18.20;99.90;;;;;;5074843;28;20163;-82
2021/07/19 04:26:26;;;;;;;9.32;6.88;;;18.20;99.90;;;;;;5060733;28;20269;-81
2021/07/19 04:28:53;;;;;;;9.50;6.97;;;18.20;99.90;;;;;;5094930;28;20250;-82
2021/07/19 04:31:19;;;;;;;10.27;7.18;;;18.20;99.90;;;;;;5061663;28;20201;-81
2021/07/19 04:33:49;;;;;;;9.43;7.30;;;18.20;99.90;;;;;;5039935;28;20179;-81
2021/07/19 04:36:17;;;;;;;8.25;7.55;;;18.30;99.90;;;;;;5045304;28;20188;-81
2021/07/19 04:38:44;;;;;;;8.98;8.00;;;18.30;99.90;;;;;;5076483;28;20182;-82
2021/07/19 04:41:10;;;;;;;11.77;7.95;;;18.40;99.90;;;;;;5076540;28;20185;-81
2021/07/19 04:43:35;;;;;;;9.55;8.07;;;18.50;99.90;;;;;;5059819;28;20231;-80
2021/07/19 04:46:01;;;;;;;12.82;7.45;;;18.60;99.90;;;;;;5073153;28;20580;-82
2021/07/19 04:48:27;;;;;;;13.52;7.40;;;18.60;99.90;;;;;;5039712;28;20205;-81
2021/07/19 04:50:53;;;;;;;7.53;6.80;;;18.70;99.90;;;;;;5056467;28;20291;-82
2021/07/19 04:53:19;;;;;;;7.00;6.40;;;19.10;99.90;;;;;;5023306;28;20178;-82
2021/07/19 04:55:48;;;;;;;7.35;6.65;;;19.70;99.90;;;;;;5064164;28;20260;-82
2021/07/19 04:58:16;;;;;;;10.13;6.03;;;20.60;99.90;;;;;;5073668;28;20179;-81
2021/07/19 05:00:47;;;;;;;6.10;5.57;;;21.50;99.90;;;;;;5077448;28;20536;-82
2021/07/19 05:03:14;;;;;;;7.20;5.07;;;22.30;99.90;;;;;;5094386;28;20151;-82
2021/07/19 05:05:41;;;;;;;5.38;4.53;;;23.00;99.90;;;;;;5042885;28;20664;-83
2021/07/19 05:08:07;;;;;;;11.20;4.47;;;23.80;99.90;;;;;;5073552;28;20332;-82
2021/07/19 05:10:34;;;;;;;9.43;6.63;;;24.50;99.90;;;;;;5073911;28;20182;-82
2021/07/19 05:13:00;;;;;;;5.90;5.45;;;25.00;99.90;;;;;;5039431;28;20240;-82
2021/07/19 05:15:26;;;;;;;8.05;6.38;;;25.50;99.90;;;;;;5073854;28;20183;-82
2021/07/19 05:17:52;;;;;;;8.43;6.25;;;25.90;99.90;;;;;;5073065;28;20213;-83
2021/07/19 05:20:20;;;;;;;6.57;5.82;;;26.20;99.90;;;;;;5057569;28;20170;-82
2021/07/19 05:22:48;;;;;;;7.53;6.35;;;26.10;99.90;;;;;;5073684;28;20600;-82
2021/07/19 05:25:24;;;;;;;7.90;6.40;;;25.90;99.90;;;;;;5060456;28;20178;-81
2021/07/19 05:27:58;;;;;;;6.65;5.95;;;26.30;99.90;;;;;;5058470;28;20249;-83
2021/07/19 05:30:28;;;;;;;6.78;6.07;;;26.50;99.90;;;;;;5073682;28;20166;-83
2021/07/19 05:32:56;;;;;;;13.20;6.05;;;26.60;99.90;;;;;;5055334;28;20265;-83
2021/07/19 05:35:22;;;;;;;6.60;5.97;;;26.60;99.90;;;;;;5055588;28;20578;-83
2021/07/19 05:37:48;;;;;;;7.30;6.57;;;26.40;99.90;;;;;;5090136;28;20186;-82
2021/07/19 05:40:15;;;;;;;5.78;5.38;;;26.90;99.90;;;;;;5075533;28;20216;-82
2021/07/19 05:42:42;;;;;;;9.93;5.95;;;27.20;99.90;;;;;;5075588;28;20181;-83
2021/07/19 05:45:09;;;;;;;8.70;6.97;;;27.40;99.90;;;;;;5093726;28;20170;-83
2021/07/19 05:47:35;;;;;;;6.57;5.85;;;27.80;99.90;;;;;;5075124;28;20190;-83
2021/07/19 05:50:01;;;;;;;9.10;6.00;;;27.80;99.90;;;;;;5075724;28;20525;-83
2021/07/19 05:52:27;;;;;;;6.88;5.60;;;27.20;99.90;;;;;;5093655;28;20539;-83
2021/07/19 05:54:53;;;;;;;6.65;6.05;;;27.70;99.90;;;;;;5091887;28;20166;-83
2021/07/19 05:57:18;;;;;;;16.70;6.78;;;28.70;99.90;;;;;;5084777;28;20178;-84
2021/07/19 05:59:44;;;;;;;10.90;5.95;;;29.10;99.90;;;;;;5075324;28;20249;-83
2021/07/19 06:02:10;;;;;;;5.47;5.07;;;30.10;99.90;;;;;;5075274;28;20178;-83
2021/07/19 06:04:35;;;;;;;19.40;6.50;;;31.20;99.90;;;;;;5075370;28;20268;-83
2021/07/19 06:07:01;;;;;;;11.45;5.75;;;32.00;99.90;;;;;;5057830;28;20208;-83
2021/07/19 06:09:27;;;;;;;11.10;5.72;;;32.10;99.90;;;;;;5042681;28;20189;-83
2021/07/19 06:11:53;;;;;;;6.13;5.30;;;32.80;99.90;;;;;;5042848;28;20638;-82
2021/07/19 06:14:18;;;;;;;8.90;5.07;;;32.20;99.90;;;;;;5042834;28;20170;-83
2021/07/19 06:16:44;;;;;;;7.30;5.32;;;32.20;99.90;;;;;;5059695;28;20277;-83
2021/07/19 06:19:09;;;;;;;5.90;5.32;;;32.20;99.90;;;;;;5059369;28;20235;-83
2021/07/19 06:21:35;;;;;;;7.40;5.32;;;33.20;99.90;;;;;;5059260;28;20202;-84
2021/07/19 06:24:01;;;;;;;11.23;5.47;;;31.60;99.90;;;;;;5076966;28;20174;-83
2021/07/19 06:26:26;;;;;;;11.57;5.85;;;32.00;99.90;;;;;;5065446;28;20635;-83
2021/07/19 06:28:52;;;;;;;8.52;5.63;;;33.40;99.90;;;;;;5062282;28;20197;-83
2021/07/19 06:31:17;;;;;;;8.05;5.47;;;34.70;99.90;;;;;;5062519;28;20185;-84
2021/07/19 06:33:43;;;;;;;11.82;5.65;;;35.00;99.90;;;;;;5079021;28;20173;-83
2021/07/19 06:36:09;;;;;;;9.95;5.28;;;35.10;99.90;;;;;;5078706;28;20244;-84
2021/07/19 06:38:34;;;;;;;15.20;5.72;;;35.60;99.90;;;;;;5045607;28;20177;-83
2021/07/19 06:41:00;;;;;;;11.73;5.50;;;36.10;99.90;;;;;;5097171;28;20170;-83
2021/07/19 06:43:25;;;;;;;12.13;5.40;;;35.00;99.90;;;;;;5062352;28;20177;-82
2021/07/19 06:45:51;;;;;;;6.05;4.90;;;35.30;99.90;;;;;;5096128;28;20162;-83
2021/07/19 06:48:17;;;;;;;5.85;5.05;;;35.30;99.90;;;;;;5096929;28;20197;-81
2021/07/19 06:50:43;;;;;;;11.20;5.13;;;35.90;99.90;;;;;;5096863;28;20230;-81
2021/07/19 06:53:09;;;;;;;8.18;4.57;;;37.10;99.90;;;;;;5096602;28;20630;-83
2021/07/19 06:55:35;;;;;;;5.28;4.70;;;37.20;99.90;;;;;;5074937;28;20166;-83
2021/07/19 06:58:00;;;;;;;5.05;4.18;;;37.60;99.70;;;;;;5087291;28;20697;-82
2021/07/19 07:00:26;;;;;;;11.93;4.97;;;35.70;99.50;;;;;;5078787;28;20166;-82
2021/07/19 07:02:52;;;;;;;6.72;4.90;;;35.30;99.90;;;;;;5096601;28;20165;-82
2021/07/19 07:05:18;;;;;;;14.35;4.68;;;34.20;99.90;;;;;;5037845;28;20648;-83
2021/07/19 07:07:44;;;;;;;6.68;5.13;;;35.40;99.90;;;;;;5058206;28;20206;-83
2021/07/19 07:10:10;;;;;;;6.75;4.90;;;37.10;99.70;;;;;;5076293;28;20231;-83
2021/07/19 07:12:38;;;;;;;9.18;5.05;;;37.90;97.70;;;;;;5076450;28;20244;-83
2021/07/19 07:15:06;;;;;;;8.55;5.65;;;38.10;98.00;;;;;;5081135;28;20260;-83
2021/07/19 07:17:31;;;;;;;8.80;4.63;;;38.70;95.80;;;;;;5076709;28;20185;-84
2021/07/19 07:19:57;;;;;;;10.60;4.60;;;39.50;96.30;;;;;;5061218;28;20169;-85
2021/07/19 07:22:25;;;;;;;5.93;3.92;;;39.90;94.40;;;;;;5075960;28;20174;-83
2021/07/19 07:24:51;;;;;;;5.30;3.97;;;39.40;93.80;;;;;;5061227;28;20177;-84
2021/07/19 07:27:19;;;;;;;7.70;3.92;;;38.50;93.90;;;;;;5078388;28;20536;-83
2021/07/19 07:29:45;;;;;;;7.88;3.78;;;38.30;94.60;;;;;;5079221;28;20174;-83
2021/07/19 07:32:12;;;;;;;8.73;3.75;;;38.60;93.50;;;;;;5057802;28;20166;-82
2021/07/19 07:34:37;;;;;;;4.55;3.53;;;38.80;94.10;;;;;;5058098;28;20304;-83
2021/07/19 07:37:03;;;;;;;5.03;2.90;;;37.80;93.00;;;;;;5057816;28;20230;-82
2021/07/19 07:39:29;;;;;;;6.10;3.17;;;38.50;93.30;;;;;;5041172;28;20182;-83
2021/07/19 07:41:55;;;;;;;10.18;3.65;;;39.10;92.10;;;;;;5024602;28;20627;-83
2021/07/19 07:44:21;;;;;;;4.70;2.83;;;40.20;91.90;;;;;;5075743;28;20169;-83
2021/07/19 07:46:46;;;;;;;3.45;2.72;;;41.60;91.70;;;;;;5077711;28;20166;-84
2021/07/19 07:49:12;;;;;;;8.48;2.90;;;41.70;90.00;;;;;;5095771;28;20165;-83
2021/07/19 07:51:38;;;;;;;8.43;2.95;;;41.90;88.50;;;;;;5060345;28;20623;-83
2021/07/19 07:54:03;;;;;;;6.63;2.80;;;42.70;86.20;;;;;;5075159;28;20192;-85
2021/07/19 07:56:29;;;;;;;5.55;3.25;;;42.90;85.00;;;;;;5075276;28;20219;-83
2021/07/19 07:58:55;;;;;;;8.40;3.70;;;41.80;84.00;;;;;;5060578;28;20182;-84
2021/07/19 08:01:20;;;;;;;7.50;3.90;;;40.50;86.30;;;;;;5060570;28;20181;-84
2021/07/19 08:03:46;;;;;;;6.40;4.00;;;40.50;86.10;;;;;;5094891;28;20169;-84
2021/07/19 08:06:12;;;;;;;4.07;3.35;;;40.80;86.60;;;;;;5077142;28;20226;-83
2021/07/19 08:08:38;;;;;;;9.85;3.63;;;39.00;88.50;;;;;;5059924;28;20202;-83
2021/07/19 08:11:05;;;;;;;7.72;2.80;;;38.50;90.10;;;;;;5076978;28;20177;-83
2021/07/19 08:13:30;;;;;;;6.45;3.20;;;38.20;90.50;;;;;;5076813;28;20628;-84
2021/07/19 08:15:57;;;;;;;5.53;3.03;;;38.30;89.00;;;;;;5059926;28;20178;-85
2021/07/19 08:18:22;;;;;;;3.78;2.72;;;37.50;90.00;;;;;;5059925;28;20169;-84
2021/07/19 08:20:48;;;;;;;6.75;2.67;;;38.40;88.80;;;;;;5039537;28;20174;-87
2021/07/19 08:23:14;;;;;;;5.90;2.70;;;38.00;87.70;;;;;;5061296;28;20182;-85
2021/07/19 08:25:40;;;;;;;6.00;2.45;;;38.00;90.00;;;;;;5094058;28;20241;-84
2021/07/19 08:28:06;;;;;;;8.60;2.60;;;39.10;88.90;;;;;;5094624;28;20633;-84
2021/07/19 08:30:32;;;;;;;5.95;2.67;;;39.10;87.60;;;;;;5058807;28;20628;-86
2021/07/19 08:32:58;;;;;;;6.63;2.50;;;39.50;87.10;;;;;;5060476;28;20201;-86
2021/07/19 08:35:25;;;;;;;3.97;2.60;;;37.30;88.30;;;;;;5095045;28;20721;-82
2021/07/19 08:37:56;;;;;;;3.45;2.25;;;37.10;89.00;;;;;;5074430;28;20208;-84
2021/07/19 08:40:23;;;;;;;3.92;2.70;;;36.20;90.90;;;;;;5040822;28;20174;-85
2021/07/19 08:42:49;;;;;;;6.13;2.45;;;33.30;92.40;;;;;;5092703;28;20177;-83
2021/07/19 08:45:14;;;;;;;3.85;2.10;;;34.60;93.40;;;;;;5076467;28;20236;-84
2021/07/19 08:47:43;;;;;;;3.47;2.38;;;36.90;92.30;;;;;;5076354;28;20193;-84
2021/07/19 08:50:10;;;;;;;2.95;2.20;;;39.30;90.30;;;;;;5075975;28;20169;-84
2021/07/19 08:52:36;;;;;;;5.75;1.98;;;40.80;87.70;;;;;;5065836;28;20185;-83
2021/07/19 08:55:08;;;;;;;7.28;2.70;;;42.60;83.00;;;;;;5056510;28;20162;-84
2021/07/19 08:57:34;;;;;;;3.10;1.92;;;43.80;80.70;;;;;;5056356;28;20185;-83
2021/07/19 09:00:04;;;;;;;4.15;2.05;;;44.00;78.40;;;;;;5079375;28;20611;-84
2021/07/19 09:02:30;;;;;;;3.10;2.10;;;43.40;78.10;;;;;;5082074;28;20173;-83
2021/07/19 09:04:56;;;;;;;6.85;2.20;;;43.20;77.70;;;;;;5059614;28;20169;-83
2021/07/19 09:07:22;;;;;;;3.33;2.42;;;42.40;76.40;;;;;;5094292;28;20544;-83
2021/07/19 09:09:51;;;;;;;3.35;1.92;;;40.70;76.10;;;;;;5075952;28;20688;-84
2021/07/19 09:12:17;;;;;;;4.22;1.83;;;38.50;82.40;;;;;;5070293;28;20166;-83
2021/07/19 09:14:47;;;;;;;5.65;2.05;;;39.80;80.50;;;;;;5073887;28;20640;-83
2021/07/19 09:17:27;;;;;;;3.65;2.08;;;40.00;82.90;;;;;;5073871;28;20170;-84
2021/07/19 09:19:54;;;;;;;3.30;2.22;;;38.40;82.60;;;;;;5055719;28;20155;-84
2021/07/19 09:22:34;;;;;;;8.38;2.08;;;39.80;81.00;;;;;;5060921;28;20514;-83
2021/07/19 09:25:15;;;;;;;8.80;2.38;;;39.50;84.30;;;;;;5075456;28;20180;-84
2021/07/19 09:27:53;;;;;;;4.32;2.50;;;39.00;81.30;;;;;;5094145;28;20185;-83
2021/07/19 09:30:21;;;;;;;4.28;2.00;;;40.00;80.70;;;;;;5093981;28;20168;-83
2021/07/19 09:32:55;;;;;;;3.50;2.10;;;40.90;79.40;;;;;;5067053;28;20185;-85
2021/07/19 09:35:21;;;;;;;3.92;2.28;;;38.90;80.50;;;;;;5074035;28;20155;-85
2021/07/19 09:37:46;;;;;;;5.78;1.80;;;38.20;83.00;;;;;;5038868;28;20247;-82
2021/07/19 09:40:13;;;;;;;3.78;2.20;;;39.90;81.00;;;;;;5055644;28;20178;-83
2021/07/19 09:42:43;;;;;;;3.72;2.40;;;39.70;81.10;;;;;;5061941;28;20627;-83
2021/07/19 09:45:21;;;;;;;3.22;1.80;;;39.50;79.40;;;;;;5075692;28;20176;-82
2021/07/19 09:47:47;;;;;;;7.07;2.00;;;40.00;80.60;;;;;;5093354;28;20716;-82
2021/07/19 09:50:16;;;;;;;4.50;2.22;;;42.30;77.60;;;;;;5042300;28;20173;-82
2021/07/19 09:52:44;;;;;;;2.35;1.77;;;43.50;74.80;;;;;;5086273;28;20323;-83
2021/07/19 09:55:23;;;;;;;5.03;2.53;;;44.20;74.40;;;;;;5055428;28;20227;-82
2021/07/19 09:57:56;;;;;;;2.35;1.75;;;43.50;72.90;;;;;;5022448;28;20186;-83
2021/07/19 10:00:26;;;;;;;2.50;1.70;;;43.40;73.60;;;;;;5055955;28;20224;-83
2021/07/19 10:02:52;;;;;;;6.63;1.80;;;43.30;74.50;;;;;;5056510;28;20174;-83
2021/07/19 10:05:28;;;;;;;3.22;1.90;;;44.60;73.00;;;;;;5039401;28;20599;-82
2021/07/19 10:07:54;;;;;;;4.10;1.73;;;44.30;70.50;;;;;;5055765;28;20202;-81
2021/07/19 10:10:33;;;;;;;3.13;1.90;;;42.40;73.30;;;;;;5048951;28;20182;-81
2021/07/19 10:13:00;;;;;;;6.72;2.08;;;41.70;73.20;;;;;;5071494;28;20170;-81
2021/07/19 10:15:25;;;;;;;2.00;1.77;;;42.30;73.00;;;;;;5058726;28;20170;-83
2021/07/19 10:17:53;;;;;;;4.95;2.33;;;42.40;74.80;;;;;;5042033;28;20177;-84
2021/07/19 10:20:19;;;;;;;14.65;2.40;;;41.80;73.10;;;;;;5088901;28;20170;-81
2021/07/19 10:22:45;;;;;;;3.97;2.03;;;43.10;70.00;;;;;;5042939;28;20178;-82
2021/07/19 10:25:11;;;;;;;2.72;2.17;;;42.60;72.50;;;;;;5055812;28;20181;-81
2021/07/19 10:27:38;;;;;;;2.50;1.88;;;39.70;73.30;;;;;;5075349;28;20675;-83
2021/07/19 10:30:06;;;;;;;5.22;2.17;;;39.80;76.60;;;;;;5058746;28;20170;-82
2021/07/19 10:32:35;;;;;;;2.22;2.03;;;41.40;75.20;;;;;;5052849;28;20174;-81
2021/07/19 10:35:01;;;;;;;11.15;2.22;;;43.20;73.40;;;;;;5073578;28;20260;-81
2021/07/19 10:37:35;;;;;;;2.72;1.80;;;43.60;71.10;;;;;;5058169;28;20261;-82
2021/07/19 10:40:06;;;;;;;2.00;1.70;;;43.60;72.20;;;;;;5093227;28;20154;-81
2021/07/19 10:42:38;;;;;;;6.38;2.20;;;43.40;70.30;;;;;;5091459;28;20162;-82
2021/07/19 10:45:22;;;;;;;10.77;2.17;;;43.20;70.00;;;;;;5073007;28;20205;-80
2021/07/19 10:47:54;;;;;;;5.03;1.80;;;42.80;71.20;;;;;;5022003;28;20723;-82
2021/07/19 10:50:27;;;;;;;1.92;1.80;;;43.50;72.60;;;;;;5073164;28;20245;-82
2021/07/19 10:52:55;;;;;;;5.25;2.28;;;44.20;70.30;;;;;;5073731;28;20507;-83
2021/07/19 10:55:32;;;;;;;5.07;2.85;;;42.90;67.30;;;;;;5076899;28;20162;-81
2021/07/19 10:58:06;;;;;;;2.95;1.95;;;42.00;68.70;;;;;;5076565;28;20690;-82
2021/07/19 11:00:45;;;;;;;2.45;2.25;;;43.40;68.30;;;;;;5080925;28;20173;-82
2021/07/19 11:03:16;;;;;;;2.50;1.90;;;43.60;69.90;;;;;;5059775;28;20507;-81
2021/07/19 11:05:47;;;;;;;3.55;2.35;;;43.40;69.70;;;;;;5093984;28;20168;-82
2021/07/19 11:08:26;;;;;;;5.97;2.60;;;44.40;68.60;;;;;;5095361;28;20692;-78
2021/07/19 11:10:57;;;;;;;8.75;2.35;;;44.60;65.30;;;;;;5060812;28;20180;-82
2021/07/19 11:13:31;;;;;;;2.90;2.10;;;44.90;67.50;;;;;;5095015;28;20154;-82
2021/07/19 11:15:57;;;;;;;3.00;2.30;;;44.20;66.90;;;;;;5077058;28;20245;-80
2021/07/19 11:18:29;;;;;;;4.88;2.10;;;44.40;66.10;;;;;;5077072;28;20235;-81
2021/07/19 11:21:02;;;;;;;4.88;2.55;;;43.00;66.40;;;;;;5076883;28;20283;-82
2021/07/19 11:23:40;;;;;;;2.90;2.28;;;42.10;68.50;;;;;;5076281;28;20262;-82
2021/07/19 11:26:19;;;;;;;6.28;2.55;;;43.40;70.30;;;;;;5076079;28;20256;-80
2021/07/19 11:28:45;;;;;;;2.92;2.10;;;44.20;66.00;;;;;;5075663;28;20314;-81
2021/07/19 11:31:23;;;;;;;3.55;2.20;;;44.30;68.20;;;;;;5095333;28;20264;-81
2021/07/19 11:34:01;;;;;;;2.80;2.10;;;44.10;66.70;;;;;;5093477;28;20173;-81
2021/07/19 11:36:32;;;;;;;3.30;2.60;;;44.30;65.60;;;;;;5094905;28;20161;-81
2021/07/19 11:39:01;;;;;;;4.22;2.50;;;44.50;65.70;;;;;;5095186;28;20165;-81
2021/07/19 11:41:32;;;;;;;5.72;2.88;;;44.50;65.90;;;;;;5094827;28;20173;-81
2021/07/19 11:44:01;;;;;;;5.80;2.90;;;43.30;67.80;;;;;;5069976;28;20180;-80
2021/07/19 11:46:28;;;;;;;6.55;2.40;;;43.20;66.90;;;;;;5095816;28;20166;-81
2021/07/19 11:49:11;;;;;;;3.35;2.88;;;42.60;68.70;;;;;;5095712;28;20224;-82
2021/07/19 11:51:44;;;;;;;5.32;2.60;;;42.80;69.30;;;;;;5076152;28;20170;-83
2021/07/19 11:54:14;;;;;;;3.00;2.40;;;43.30;67.70;;;;;;5092309;28;20179;-83
2021/07/19 11:56:56;;;;;;;4.22;2.92;;;43.10;68.50;;;;;;5095335;28;20232;-82
2021/07/19 11:59:24;;;;;;;3.58;2.60;;;42.50;68.60;;;;;;5060341;28;20189;-83
2021/07/19 12:01:58;;;;;;;3.45;2.83;;;42.80;69.50;;;;;;5076473;28;20172;-83
2021/07/19 12:04:39;;;;;;;5.18;2.58;;;39.70;73.40;;;;;;5076026;28;20177;-83
2021/07/19 12:07:07;;;;;;;4.50;3.15;;;39.70;71.90;;;;;;5095074;28;20257;-83
2021/07/19 12:09:34;;;;;;;4.25;2.70;;;39.30;74.30;;;;;;5060944;28;20174;-84
2021/07/19 12:12:01;;;;;;;3.40;2.60;;;39.50;72.20;;;;;;5092192;28;20253;-82
2021/07/19 12:14:26;;;;;;;3.22;2.92;;;39.40;73.70;;;;;;5057688;28;20272;-82
2021/07/19 12:16:52;;;;;;;2.92;2.63;;;39.90;72.30;;;;;;5058200;28;20261;-83
2021/07/19 12:19:20;;;;;;;5.20;3.25;;;40.40;72.70;;;;;;5023902;28;20220;-84
2021/07/19 12:21:51;;;;;;;4.55;3.33;;;39.70;73.70;;;;;;5057334;28;20186;-83
2021/07/19 12:24:19;;;;;;;4.95;3.05;;;39.40;73.70;;;;;;5073236;28;20258;-82
2021/07/19 12:26:48;;;;;;;3.70;3.17;;;38.80;74.00;;;;;;5084572;28;20196;-83
2021/07/19 12:29:23;;;;;;;5.38;3.40;;;37.20;77.30;;;;;;5056805;28;20724;-83
2021/07/19 12:31:52;;;;;;;4.55;3.05;;;36.00;80.40;;;;;;5068566;28;20222;-83
2021/07/19 12:34:24;;;;;;;7.20;3.38;;;34.20;83.20;;;;;;5075924;28;20173;-82
2021/07/19 12:36:51;;;;;;;3.92;3.40;;;33.30;85.20;;;;;;5060004;28;20236;-83
2021/07/19 12:39:20;;;;;;;9.15;4.15;;;32.80;87.30;;;;;;5085727;28;20178;-82
2021/07/19 12:41:48;;;;;;;4.00;3.50;;;32.40;88.40;;;;;;5050245;28;20260;-84
2021/07/19 12:44:14;;;;;;;4.72;3.33;;;32.20;88.00;;;;;;5069592;28;20261;-84
2021/07/19 12:46:44;;;;;;;5.72;3.72;;;31.50;89.30;;;;;;5089826;28;20173;-83
2021/07/19 12:49:11;;;;;;;11.52;3.67;;;31.50;89.50;;;;;;5075807;28;20549;-82
2021/07/19 12:51:39;;;;;;;3.90;3.60;;;31.60;90.20;;;;;;5072910;28;20279;-80